sensor_id;sensor_type;location;lat;lon;timestamp;pressure;altitude;pressure_sealevel;temperature;humidity
18985;BME280;9626;52.552;13.436;2023-04-01T00:01:41;99117.81;;;8.87;100.00
18985;BME280;9626;52.552;13.436;2023-04-01T00:04:07;99113.38;;;8.87;100.00
18985;BME280;9626;52.552;13.436;2023-04-01T00:06:33;99108.41;;;8.79;100.00
18985;BME280;9626;52.552;13.436;2023-04-01T00:08:59;99107.38;;;8.84;100.00
18985;BME280;9626;52.552;13.436;2023-04-01T00:11:25;99116.19;;;8.83;100.00
18985;BME280;9626;52.552;13.436;2023-04-01T00:13:53;99111.88;;;8.80;100.00
18985;BME280;9626;52.552;13.436;2023-04-01T00:16:19;99114.59;;;8.78;100.00
18985;BME280;9626;52.552;13.436;2023-04-01T00:18:46;99110.28;;;8.76;100.00
18985;BME280;9626;52.552;13.436;2023-04-01T00:21:13;99113.69;;;8.79;100.00
18985;BME280;9626;52.552;13.436;2023-04-01T00:23:40;99111.13;;;8.76;100.00
18985;BME280;9626;52.552;13.436;2023-04-01T00:26:07;99106.94;;;8.71;100.00
18985;BME280;9626;52.552;13.436;2023-04-01T00:28:34;99109.53;;;8.72;100.00
18985;BME280;9626;52.552;13.436;2023-04-01T00:31:05;99107.81;;;8.71;100.00
18985;BME280;9626;52.552;13.436;2023-04-01T00:33:32;99117.38;;;8.74;100.00
18985;BME280;9626;52.552;13.436;2023-04-01T00:36:19;99105.97;;;8.73;100.00
18985;BME280;9626;52.552;13.436;2023-04-01T00:38:46;99109.44;;;8.75;100.00
18985;BME280;9626;52.552;13.436;2023-04-01T00:41:13;99111.50;;;8.67;100.00
18985;BME280;9626;52.552;13.436;2023-04-01T00:43:42;99109.78;;;8.66;100.00
18985;BME280;9626;52.552;13.436;2023-04-01T00:46:08;99101.78;;;8.68;100.00
18985;BME280;9626;52.552;13.436;2023-04-01T00:48:37;99107.06;;;8.68;100.00
18985;BME280;9626;52.552;13.436;2023-04-01T00:51:07;99100.06;;;8.67;100.00
18985;BME280;9626;52.552;13.436;2023-04-01T00:53:36;99107.81;;;8.71;100.00
18985;BME280;9626;52.552;13.436;2023-04-01T00:56:30;99111.81;;;8.82;100.00
18985;BME280;9626;52.552;13.436;2023-04-01T00:59:00;99111.56;;;8.89;100.00
18985;BME280;9626;52.552;13.436;2023-04-01T01:01:29;99112.66;;;8.84;100.00
18985;BME280;9626;52.552;13.436;2023-04-01T01:03:57;99106.50;;;8.83;100.00
18985;BME280;9626;52.552;13.436;2023-04-01T01:16:55;99112.66;;;8.84;100.00
18985;BME280;9626;52.552;13.436;2023-04-01T01:19:58;99105.63;;;8.83;100.00
18985;BME280;9626;52.552;13.436;2023-04-01T01:36:15;99123.53;;;9.22;100.00
18985;BME280;9626;52.552;13.436;2023-04-01T01:38:44;99116.72;;;9.14;100.00
18985;BME280;9626;52.552;13.436;2023-04-01T01:41:12;99118.81;;;9.06;100.00
18985;BME280;9626;52.552;13.436;2023-04-01T01:43:42;99118.19;;;9.00;100.00
18985;BME280;9626;52.552;13.436;2023-04-01T01:46:15;99116.41;;;9.00;100.00
18985;BME280;9626;52.552;13.436;2023-04-01T01:48:43;99121.50;;;9.05;100.00
18985;BME280;9626;52.552;13.436;2023-04-01T01:51:11;99121.50;;;9.05;100.00
18985;BME280;9626;52.552;13.436;2023-04-01T01:53:38;99122.34;;;9.07;100.00
18985;BME280;9626;52.552;13.436;2023-04-01T01:56:04;99123.00;;;9.12;100.00
18985;BME280;9626;52.552;13.436;2023-04-01T01:58:37;99123.75;;;9.16;100.00
18985;BME280;9626;52.552;13.436;2023-04-01T02:01:28;99126.09;;;9.23;100.00
18985;BME280;9626;52.552;13.436;2023-04-01T02:03:56;99125.00;;;9.29;100.00
18985;BME280;9626;52.552;13.436;2023-04-01T02:06:25;99123.38;;;9.25;100.00
18985;BME280;9626;52.552;13.436;2023-04-01T02:08:58;99125.53;;;9.15;100.00
18985;BME280;9626;52.552;13.436;2023-04-01T02:11:51;99127.41;;;9.11;100.00
18985;BME280;9626;52.552;13.436;2023-04-01T02:14:41;99129.94;;;9.14;100.00
18985;BME280;9626;52.552;13.436;2023-04-01T02:17:09;99127.69;;;9.05;100.00
18985;BME280;9626;52.552;13.436;2023-04-01T02:19:56;99127.13;;;8.95;100.00
18985;BME280;9626;52.552;13.436;2023-04-01T02:22:31;99130.09;;;8.88;100.00
18985;BME280;9626;52.552;13.436;2023-04-01T02:25:01;99129.34;;;8.84;100.00
18985;BME280;9626;52.552;13.436;2023-04-01T02:27:28;99124.06;;;8.84;100.00
18985;BME280;9626;52.552;13.436;2023-04-01T02:29:56;99131.00;;;8.87;100.00
18985;BME280;9626;52.552;13.436;2023-04-01T02:32:24;99133.63;;;8.87;100.00
18985;BME280;9626;52.552;13.436;2023-04-01T02:34:51;99144.38;;;8.82;100.00
18985;BME280;9626;52.552;13.436;2023-04-01T02:37:18;99138.00;;;8.88;100.00
18985;BME280;9626;52.552;13.436;2023-04-01T02:39:44;99139.03;;;8.84;100.00
18985;BME280;9626;52.552;13.436;2023-04-01T02:42:10;99140.41;;;8.94;100.00
18985;BME280;9626;52.552;13.436;2023-04-01T02:44:36;99139.63;;;8.92;100.00
18985;BME280;9626;52.552;13.436;2023-04-01T02:47:02;99143.94;;;8.93;100.00
18985;BME280;9626;52.552;13.436;2023-04-01T02:49:29;99151.78;;;8.96;100.00
18985;BME280;9626;52.552;13.436;2023-04-01T02:51:55;99143.28;;;8.88;100.00
18985;BME280;9626;52.552;13.436;2023-04-01T02:54:21;99147.88;;;8.83;100.00
18985;BME280;9626;52.552;13.436;2023-04-01T02:56:47;99154.75;;;8.87;100.00
18985;BME280;9626;52.552;13.436;2023-04-01T02:59:13;99156.56;;;8.85;100.00
18985;BME280;9626;52.552;13.436;2023-04-01T03:01:39;99165.53;;;8.80;100.00
18985;BME280;9626;52.552;13.436;2023-04-01T03:04:05;99164.34;;;8.89;100.00
18985;BME280;9626;52.552;13.436;2023-04-01T03:06:32;99157.06;;;8.96;100.00
18985;BME280;9626;52.552;13.436;2023-04-01T03:08:58;99163.00;;;9.01;100.00
18985;BME280;9626;52.552;13.436;2023-04-01T03:11:24;99162.00;;;9.05;100.00
18985;BME280;9626;52.552;13.436;2023-04-01T03:13:51;99156.88;;;9.01;100.00
18985;BME280;9626;52.552;13.436;2023-04-01T03:16:17;99156.94;;;8.99;100.00
18985;BME280;9626;52.552;13.436;2023-04-01T03:18:43;99159.56;;;8.99;100.00
18985;BME280;9626;52.552;13.436;2023-04-01T03:21:18;99159.56;;;8.99;100.00
18985;BME280;9626;52.552;13.436;2023-04-01T03:23:44;99154.06;;;9.05;100.00
18985;BME280;9626;52.552;13.436;2023-04-01T03:26:10;99164.53;;;9.08;100.00
18985;BME280;9626;52.552;13.436;2023-04-01T03:28:36;99166.91;;;9.14;100.00
18985;BME280;9626;52.552;13.436;2023-04-01T03:31:03;99160.97;;;9.09;100.00
18985;BME280;9626;52.552;13.436;2023-04-01T03:33:29;99166.13;;;9.12;100.00
18985;BME280;9626;52.552;13.436;2023-04-01T03:35:55;99166.00;;;9.16;100.00
18985;BME280;9626;52.552;13.436;2023-04-01T03:38:21;99168.50;;;9.19;100.00
18985;BME280;9626;52.552;13.436;2023-04-01T03:40:47;99169.19;;;9.24;100.00
18985;BME280;9626;52.552;13.436;2023-04-01T03:43:13;99160.38;;;9.25;100.00
18985;BME280;9626;52.552;13.436;2023-04-01T03:45:51;99168.22;;;9.26;100.00
18985;BME280;9626;52.552;13.436;2023-04-01T03:48:17;99175.06;;;9.32;100.00
18985;BME280;9626;52.552;13.436;2023-04-01T03:50:44;99177.69;;;9.32;100.00
18985;BME280;9626;52.552;13.436;2023-04-01T03:53:10;99177.00;;;9.27;100.00
18985;BME280;9626;52.552;13.436;2023-04-01T03:55:36;99176.91;;;9.30;100.00
18985;BME280;9626;52.552;13.436;2023-04-01T03:58:04;99182.84;;;9.35;100.00
18985;BME280;9626;52.552;13.436;2023-04-01T04:00:30;99175.69;;;9.39;100.00
18985;BME280;9626;52.552;13.436;2023-04-01T04:02:57;99182.00;;;9.35;100.00
18985;BME280;9626;52.552;13.436;2023-04-01T04:05:24;99184.44;;;9.39;100.00
18985;BME280;9626;52.552;13.436;2023-04-01T04:07:51;99193.13;;;9.43;100.00
18985;BME280;9626;52.552;13.436;2023-04-01T04:10:18;99189.50;;;9.45;100.00
18985;BME280;9626;52.552;13.436;2023-04-01T04:12:45;99189.38;;;9.48;100.00
18985;BME280;9626;52.552;13.436;2023-04-01T04:15:11;99188.59;;;9.46;100.00
18985;BME280;9626;52.552;13.436;2023-04-01T04:17:37;99198.59;;;9.38;100.00
18985;BME280;9626;52.552;13.436;2023-04-01T04:20:04;99203.97;;;9.35;100.00
18985;BME280;9626;52.552;13.436;2023-04-01T04:22:31;99192.91;;;9.25;100.00
18985;BME280;9626;52.552;13.436;2023-04-01T04:24:56;99200.25;;;9.17;100.00
18985;BME280;9626;52.552;13.436;2023-04-01T04:27:24;99204.81;;;9.13;100.00
18985;BME280;9626;52.552;13.436;2023-04-01T04:29:52;99203.09;;;9.12;100.00
18985;BME280;9626;52.552;13.436;2023-04-01T04:32:18;99202.13;;;9.15;100.00
18985;BME280;9626;52.552;13.436;2023-04-01T04:34:44;99204.91;;;9.10;100.00
18985;BME280;9626;52.552;13.436;2023-04-01T04:37:10;99212.03;;;9.08;100.00
18985;BME280;9626;52.552;13.436;2023-04-01T04:39:36;99213.78;;;9.09;100.00
18985;BME280;9626;52.552;13.436;2023-04-01T04:42:02;99210.31;;;9.07;100.00
18985;BME280;9626;52.552;13.436;2023-04-01T04:44:28;99216.56;;;9.05;100.00
18985;BME280;9626;52.552;13.436;2023-04-01T04:46:54;99214.84;;;9.04;100.00
18985;BME280;9626;52.552;13.436;2023-04-01T04:49:20;99220.34;;;8.98;100.00
18985;BME280;9626;52.552;13.436;2023-04-01T04:51:46;99224.03;;;8.93;100.00
18985;BME280;9626;52.552;13.436;2023-04-01T04:54:12;99222.41;;;8.89;100.00
18985;BME280;9626;52.552;13.436;2023-04-01T04:56:38;99223.38;;;8.87;100.00
18985;BME280;9626;52.552;13.436;2023-04-01T04:59:05;99225.84;;;8.91;100.00
18985;BME280;9626;52.552;13.436;2023-04-01T05:01:31;99233.69;;;8.93;100.00
18985;BME280;9626;52.552;13.436;2023-04-01T05:03:57;99226.81;;;8.89;100.00
18985;BME280;9626;52.552;13.436;2023-04-01T05:06:23;99230.16;;;8.94;100.00
18985;BME280;9626;52.552;13.436;2023-04-01T05:08:51;99229.25;;;8.95;100.00
18985;BME280;9626;52.552;13.436;2023-04-01T05:11:19;99227.19;;;9.03;100.00
18985;BME280;9626;52.552;13.436;2023-04-01T05:13:45;99234.91;;;9.09;100.00
18985;BME280;9626;52.552;13.436;2023-04-01T05:16:14;99240.78;;;9.16;100.00
18985;BME280;9626;52.552;13.436;2023-04-01T05:18:41;99236.25;;;9.20;100.00
18985;BME280;9626;52.552;13.436;2023-04-01T05:21:08;99236.06;;;9.26;100.00
18985;BME280;9626;52.552;13.436;2023-04-01T05:23:35;99239.34;;;9.31;100.00
18985;BME280;9626;52.552;13.436;2023-04-01T05:26:06;99238.44;;;9.32;100.00
18985;BME280;9626;52.552;13.436;2023-04-01T05:28:33;99240.38;;;9.28;100.00
18985;BME280;9626;52.552;13.436;2023-04-01T05:31:00;99241.09;;;9.32;100.00
18985;BME280;9626;52.552;13.436;2023-04-01T05:33:27;99242.75;;;9.35;100.00
18985;BME280;9626;52.552;13.436;2023-04-01T05:35:54;99242.81;;;9.33;100.00
18985;BME280;9626;52.552;13.436;2023-04-01T05:38:20;99245.53;;;9.32;100.00
18985;BME280;9626;52.552;13.436;2023-04-01T05:40:46;99246.16;;;9.38;100.00
18985;BME280;9626;52.552;13.436;2023-04-01T05:43:13;99247.75;;;9.42;100.00
18985;BME280;9626;52.552;13.436;2023-04-01T05:45:39;99247.84;;;9.39;100.00
18985;BME280;9626;52.552;13.436;2023-04-01T05:48:05;99248.56;;;9.44;100.00
18985;BME280;9626;52.552;13.436;2023-04-01T05:50:31;99248.50;;;9.46;100.00
18985;BME280;9626;52.552;13.436;2023-04-01T05:52:57;99251.81;;;9.51;100.00
18985;BME280;9626;52.552;13.436;2023-04-01T05:55:23;99247.28;;;9.55;100.00
18985;BME280;9626;52.552;13.436;2023-04-01T05:57:49;99261.41;;;9.54;100.00
18985;BME280;9626;52.552;13.436;2023-04-01T06:00:17;99256.13;;;9.54;100.00
18985;BME280;9626;52.552;13.436;2023-04-01T06:02:43;99254.31;;;9.56;100.00
18985;BME280;9626;52.552;13.436;2023-04-01T06:05:22;99263.88;;;9.58;100.00
18985;BME280;9626;52.552;13.436;2023-04-01T06:07:51;99265.59;;;9.59;100.00
18985;BME280;9626;52.552;13.436;2023-04-01T06:10:38;99262.06;;;9.60;100.00
18985;BME280;9626;52.552;13.436;2023-04-01T06:19:17;99276.88;;;9.64;100.00
18985;BME280;9626;52.552;13.436;2023-04-01T06:22:18;99281.19;;;9.67;100.00
18985;BME280;9626;52.552;13.436;2023-04-01T06:25:02;99280.25;;;9.68;100.00
18985;BME280;9626;52.552;13.436;2023-04-01T06:27:50;99284.59;;;9.69;100.00
18985;BME280;9626;52.552;13.436;2023-04-01T06:30:34;99290.72;;;9.71;100.00
18985;BME280;9626;52.552;13.436;2023-04-01T06:41:40;99293.28;;;9.73;100.00
18985;BME280;9626;52.552;13.436;2023-04-01T06:46:47;99294.38;;;9.67;100.00
18985;BME280;9626;52.552;13.436;2023-04-01T06:57:22;99299.81;;;9.64;100.00
18985;BME280;9626;52.552;13.436;2023-04-01T06:59:47;99299.97;;;9.59;100.00
18985;BME280;9626;52.552;13.436;2023-04-01T07:02:21;99305.09;;;9.64;100.00
18985;BME280;9626;52.552;13.436;2023-04-01T07:04:53;99305.09;;;9.64;100.00
18985;BME280;9626;52.552;13.436;2023-04-01T07:07:28;99311.84;;;9.71;100.00
18985;BME280;9626;52.552;13.436;2023-04-01T07:09:56;99310.81;;;9.75;100.00
18985;BME280;9626;52.552;13.436;2023-04-01T07:14:58;99315.69;;;9.86;100.00
18985;BME280;9626;52.552;13.436;2023-04-01T07:17:32;99314.72;;;9.89;100.00
18985;BME280;9626;52.552;13.436;2023-04-01T07:20:05;99314.72;;;9.89;100.00
18985;BME280;9626;52.552;13.436;2023-04-01T07:22:40;99313.00;;;9.88;100.00
18985;BME280;9626;52.552;13.436;2023-04-01T07:25:17;99313.13;;;9.85;100.00
18985;BME280;9626;52.552;13.436;2023-04-01T07:27:45;99324.88;;;9.76;100.00
18985;BME280;9626;52.552;13.436;2023-04-01T07:30:22;99320.47;;;9.76;100.00
18985;BME280;9626;52.552;13.436;2023-04-01T07:33:00;99329.06;;;9.81;100.00
18985;BME280;9626;52.552;13.436;2023-04-01T07:35:36;99324.72;;;9.80;100.00
18985;BME280;9626;52.552;13.436;2023-04-01T07:38:18;99323.91;;;9.78;100.00
18985;BME280;9626;52.552;13.436;2023-04-01T07:49:07;99342.75;;;9.93;100.00
18985;BME280;9626;52.552;13.436;2023-04-01T07:51:59;99340.91;;;9.95;100.00
18985;BME280;9626;52.552;13.436;2023-04-01T07:54:57;99346.09;;;9.98;100.00
18985;BME280;9626;52.552;13.436;2023-04-01T08:05:41;99356.38;;;9.58;100.00
18985;BME280;9626;52.552;13.436;2023-04-01T08:13:46;99365.56;;;9.48;100.00
18985;BME280;9626;52.552;13.436;2023-04-01T08:16:41;99365.84;;;9.40;100.00
18985;BME280;9626;52.552;13.436;2023-04-01T08:22:04;99373.41;;;9.26;100.00
18985;BME280;9626;52.552;13.436;2023-04-01T08:24:42;99378.94;;;9.18;100.00
18985;BME280;9626;52.552;13.436;2023-04-01T08:27:27;99375.09;;;9.27;100.00
18985;BME280;9626;52.552;13.436;2023-04-01T08:29:59;99379.47;;;9.28;100.00
18985;BME280;9626;52.552;13.436;2023-04-01T08:32:35;99384.75;;;9.28;100.00
18985;BME280;9626;52.552;13.436;2023-04-01T08:35:26;99389.00;;;9.32;100.00
18985;BME280;9626;52.552;13.436;2023-04-01T08:37:55;99393.66;;;9.25;100.00
18985;BME280;9626;52.552;13.436;2023-04-01T08:40:37;99394.53;;;9.26;100.00
18985;BME280;9626;52.552;13.436;2023-04-01T08:49:49;99396.22;;;9.02;100.00
18985;BME280;9626;52.552;13.436;2023-04-01T08:57:19;99400.25;;;9.13;100.00
18985;BME280;9626;52.552;13.436;2023-04-01T09:19:35;99417.59;;;9.21;100.00
18985;BME280;9626;52.552;13.436;2023-04-01T09:30:58;99434.16;;;8.99;100.00
18985;BME280;9626;52.552;13.436;2023-04-01T09:41:32;99436.56;;;9.07;100.00
18985;BME280;9626;52.552;13.436;2023-04-01T09:44:06;99440.88;;;9.09;100.00
18985;BME280;9626;52.552;13.436;2023-04-01T09:55:14;99451.63;;;9.03;100.00
18985;BME280;9626;52.552;13.436;2023-04-01T09:58:26;99462.97;;;9.07;100.00
18985;BME280;9626;52.552;13.436;2023-04-01T10:03:54;99463.44;;;8.91;100.00
18985;BME280;9626;52.552;13.436;2023-04-01T10:12:30;99470.56;;;8.89;100.00
18985;BME280;9626;52.552;13.436;2023-04-01T10:15:35;99475.28;;;8.79;100.00
18985;BME280;9626;52.552;13.436;2023-04-01T10:26:10;99485.06;;;8.76;100.00
18985;BME280;9626;52.552;13.436;2023-04-01T10:31:54;99479.78;;;8.76;100.00
18985;BME280;9626;52.552;13.436;2023-04-01T10:37:49;99492.50;;;8.63;100.00
18985;BME280;9626;52.552;13.436;2023-04-01T10:41:05;99490.72;;;8.63;100.00
18985;BME280;9626;52.552;13.436;2023-04-01T11:01:14;99506.66;;;8.60;100.00
18985;BME280;9626;52.552;13.436;2023-04-01T11:12:31;99503.38;;;8.52;100.00
18985;BME280;9626;52.552;13.436;2023-04-01T11:22:10;99516.53;;;8.54;100.00
18985;BME280;9626;52.552;13.436;2023-04-01T11:32:54;99527.81;;;8.59;100.00
18985;BME280;9626;52.552;13.436;2023-04-01T11:35:55;99524.34;;;8.57;100.00
18985;BME280;9626;52.552;13.436;2023-04-01T11:38:53;99529.47;;;8.61;100.00
18985;BME280;9626;52.552;13.436;2023-04-01T11:41:46;99535.72;;;8.59;100.00
18985;BME280;9626;52.552;13.436;2023-04-01T11:44:18;99538.31;;;8.60;100.00
18985;BME280;9626;52.552;13.436;2023-04-01T11:50:13;99552.72;;;8.49;100.00
18985;BME280;9626;52.552;13.436;2023-04-01T11:55:35;99557.41;;;8.37;100.00
18985;BME280;9626;52.552;13.436;2023-04-01T12:04:00;99568.88;;;8.36;100.00
18985;BME280;9626;52.552;13.436;2023-04-01T12:12:35;99584.53;;;8.09;100.00
18985;BME280;9626;52.552;13.436;2023-04-01T12:18:57;99581.94;;;8.08;100.00
18985;BME280;9626;52.552;13.436;2023-04-01T12:24:14;99590.28;;;8.25;100.00
18985;BME280;9626;52.552;13.436;2023-04-01T12:26:52;99593.84;;;8.23;100.00
18985;BME280;9626;52.552;13.436;2023-04-01T12:29:54;99592.25;;;8.17;100.00
18985;BME280;9626;52.552;13.436;2023-04-01T12:32:41;99602.00;;;8.13;100.00
18985;BME280;9626;52.552;13.436;2023-04-01T12:35:18;99601.16;;;8.13;100.00
18985;BME280;9626;52.552;13.436;2023-04-01T12:43:25;99605.53;;;8.12;100.00
18985;BME280;9626;52.552;13.436;2023-04-01T13:03:19;99639.34;;;7.98;100.00
18985;BME280;9626;52.552;13.436;2023-04-01T13:06:22;99640.34;;;7.92;100.00
18985;BME280;9626;52.552;13.436;2023-04-01T13:11:53;99639.69;;;7.84;100.00
18985;BME280;9626;52.552;13.436;2023-04-01T13:20:19;99650.00;;;7.92;100.00
18985;BME280;9626;52.552;13.436;2023-04-01T13:23:14;99651.84;;;7.90;100.00
18985;BME280;9626;52.552;13.436;2023-04-01T13:34:21;99669.75;;;7.75;100.00
18985;BME280;9626;52.552;13.436;2023-04-01T13:37:15;99680.16;;;7.82;100.00
18985;BME280;9626;52.552;13.436;2023-04-01T13:40:21;99679.31;;;7.79;100.00
18985;BME280;9626;52.552;13.436;2023-04-01T13:42:54;99680.34;;;7.74;100.00
18985;BME280;9626;52.552;13.436;2023-04-01T13:45:50;99683.59;;;7.84;100.00
18985;BME280;9626;52.552;13.436;2023-04-01T14:04:53;99692.75;;;7.70;100.00
18985;BME280;9626;52.552;13.436;2023-04-01T14:30:39;99732.50;;;7.59;100.00
18985;BME280;9626;52.552;13.436;2023-04-01T14:36:09;99735.38;;;7.49;100.00
18985;BME280;9626;52.552;13.436;2023-04-01T14:42:04;99740.56;;;7.52;100.00
18985;BME280;9626;52.552;13.436;2023-04-01T14:47:39;99747.69;;;7.47;100.00
18985;BME280;9626;52.552;13.436;2023-04-01T14:50:31;99750.53;;;7.37;100.00
18985;BME280;9626;52.552;13.436;2023-04-01T14:56:07;99755.44;;;7.54;100.00
18985;BME280;9626;52.552;13.436;2023-04-01T14:58:50;99753.00;;;7.45;100.00
18985;BME280;9626;52.552;13.436;2023-04-01T15:12:40;99775.28;;;7.30;100.00
18985;BME280;9626;52.552;13.436;2023-04-01T15:15:39;99771.06;;;7.20;100.00
18985;BME280;9626;52.552;13.436;2023-04-01T15:18:33;99788.75;;;7.15;100.00
18985;BME280;9626;52.552;13.436;2023-04-01T15:23:57;99798.56;;;7.06;100.00
18985;BME280;9626;52.552;13.436;2023-04-01T15:34:18;99804.78;;;7.02;100.00
18985;BME280;9626;52.552;13.436;2023-04-01T15:37:02;99807.53;;;6.96;100.00
18985;BME280;9626;52.552;13.436;2023-04-01T15:48:25;99822.63;;;6.86;100.00
18985;BME280;9626;52.552;13.436;2023-04-01T15:51:08;99822.75;;;6.79;100.00
18985;BME280;9626;52.552;13.436;2023-04-01T15:56:28;99834.97;;;6.83;100.00
18985;BME280;9626;52.552;13.436;2023-04-01T16:24:12;99875.84;;;6.51;100.00
18985;BME280;9626;52.552;13.436;2023-04-01T16:27:18;99882.09;;;6.45;100.00
18985;BME280;9626;52.552;13.436;2023-04-01T16:29:56;99890.84;;;6.44;100.00
18985;BME280;9626;52.552;13.436;2023-04-01T16:32:44;99893.44;;;6.46;100.00
18985;BME280;9626;52.552;13.436;2023-04-01T16:38:43;99902.31;;;6.40;100.00
18985;BME280;9626;52.552;13.436;2023-04-01T16:41:31;99908.50;;;6.36;100.00
18985;BME280;9626;52.552;13.436;2023-04-01T16:44:22;99915.63;;;6.29;100.00
18985;BME280;9626;52.552;13.436;2023-04-01T16:49:31;99921.72;;;6.30;100.00
18985;BME280;9626;52.552;13.436;2023-04-01T16:52:15;99918.38;;;6.20;100.00
18985;BME280;9626;52.552;13.436;2023-04-01T16:55:14;99924.59;;;6.14;100.00
18985;BME280;9626;52.552;13.436;2023-04-01T16:57:57;99942.13;;;6.12;100.00
18985;BME280;9626;52.552;13.436;2023-04-01T17:00:40;99939.50;;;6.14;100.00
18985;BME280;9626;52.552;13.436;2023-04-01T17:06:00;99953.69;;;5.97;100.00
18985;BME280;9626;52.552;13.436;2023-04-01T17:17:14;99973.13;;;5.81;100.00
18985;BME280;9626;52.552;13.436;2023-04-01T17:26:03;99999.66;;;5.59;100.00
18985;BME280;9626;52.552;13.436;2023-04-01T17:28:49;99997.91;;;5.58;100.00
18985;BME280;9626;52.552;13.436;2023-04-01T17:45:02;100026.16;;;5.36;100.00
18985;BME280;9626;52.552;13.436;2023-04-01T17:55:49;100041.97;;;5.25;100.00
18985;BME280;9626;52.552;13.436;2023-04-01T18:01:19;100047.25;;;5.22;100.00
18985;BME280;9626;52.552;13.436;2023-04-01T18:04:01;100054.31;;;5.17;100.00
18985;BME280;9626;52.552;13.436;2023-04-01T18:11:44;100072.69;;;5.12;100.00
18985;BME280;9626;52.552;13.436;2023-04-01T18:20:25;100084.09;;;5.06;100.00
18985;BME280;9626;52.552;13.436;2023-04-01T18:25:38;100088.53;;;4.97;100.00
18985;BME280;9626;52.552;13.436;2023-04-01T18:28:40;100099.94;;;4.94;100.00
18985;BME280;9626;52.552;13.436;2023-04-01T18:31:17;100102.50;;;5.00;100.00
18985;BME280;9626;52.552;13.436;2023-04-01T18:34:06;100112.16;;;4.97;100.00
18985;BME280;9626;52.552;13.436;2023-04-01T18:36:41;100117.41;;;4.92;100.00
18985;BME280;9626;52.552;13.436;2023-04-01T18:39:21;100120.03;;;4.92;100.00
18985;BME280;9626;52.552;13.436;2023-04-01T18:41:53;100129.66;;;4.93;100.00
18985;BME280;9626;52.552;13.436;2023-04-01T18:49:46;100144.53;;;4.93;100.00
18985;BME280;9626;52.552;13.436;2023-04-01T18:52:23;100153.31;;;4.88;100.00
18985;BME280;9626;52.552;13.436;2023-04-01T18:57:49;100166.47;;;4.78;100.00
18985;BME280;9626;52.552;13.436;2023-04-01T19:00:28;100168.22;;;4.79;100.00
18985;BME280;9626;52.552;13.436;2023-04-01T19:03:02;100176.06;;;4.82;100.00
18985;BME280;9626;52.552;13.436;2023-04-01T19:05:36;100180.44;;;4.78;100.00
18985;BME280;9626;52.552;13.436;2023-04-01T19:08:28;100176.97;;;4.71;100.00
18985;BME280;9626;52.552;13.436;2023-04-01T19:11:07;100181.38;;;4.69;100.00
18985;BME280;9626;52.552;13.436;2023-04-01T19:21:58;100191.06;;;4.49;100.00
18985;BME280;9626;52.552;13.436;2023-04-01T19:25:00;100191.91;;;4.52;100.00
18985;BME280;9626;52.552;13.436;2023-04-01T19:27:42;100199.78;;;4.48;100.00
18985;BME280;9626;52.552;13.436;2023-04-01T19:30:47;100203.28;;;4.44;100.00
18985;BME280;9626;52.552;13.436;2023-04-01T19:33:28;100213.78;;;4.47;100.00
18985;BME280;9626;52.552;13.436;2023-04-01T19:36:18;100212.03;;;4.43;100.00
18985;BME280;9626;52.552;13.436;2023-04-01T19:39:10;100218.16;;;4.45;100.00
18985;BME280;9626;52.552;13.436;2023-04-01T19:50:19;100233.91;;;4.17;100.00
18985;BME280;9626;52.552;13.436;2023-04-01T19:52:50;100249.63;;;4.17;100.00
18985;BME280;9626;52.552;13.436;2023-04-01T20:01:03;100257.50;;;4.17;100.00
18985;BME280;9626;52.552;13.436;2023-04-01T20:06:27;100262.72;;;4.28;100.00
18985;BME280;9626;52.552;13.436;2023-04-01T20:14:48;100283.72;;;4.20;100.00
18985;BME280;9626;52.552;13.436;2023-04-01T20:25:24;100309.91;;;4.12;100.00
18985;BME280;9626;52.552;13.436;2023-04-01T20:36:21;100337.00;;;4.10;100.00
18985;BME280;9626;52.552;13.436;2023-04-01T20:41:53;100335.25;;;4.01;100.00
18985;BME280;9626;52.552;13.436;2023-04-01T20:44:50;100339.59;;;3.97;100.00
18985;BME280;9626;52.552;13.436;2023-04-01T20:50:29;100353.53;;;3.87;100.00
18985;BME280;9626;52.552;13.436;2023-04-01T21:04:00;100365.78;;;3.97;100.00
18985;BME280;9626;52.552;13.436;2023-04-01T21:07:01;100366.66;;;3.95;100.00
18985;BME280;9626;52.552;13.436;2023-04-01T21:09:55;100374.47;;;3.84;100.00
18985;BME280;9626;52.552;13.436;2023-04-01T21:12:56;100389.34;;;3.86;100.00
18985;BME280;9626;52.552;13.436;2023-04-01T21:32:58;100408.50;;;3.71;100.00
18985;BME280;9626;52.552;13.436;2023-04-01T21:41:44;100425.16;;;3.89;100.00
18985;BME280;9626;52.552;13.436;2023-04-01T21:44:51;100431.22;;;3.77;100.00
18985;BME280;9626;52.552;13.436;2023-04-01T21:47:47;100432.97;;;3.77;100.00
18985;BME280;9626;52.552;13.436;2023-04-01T21:53:32;100443.38;;;3.64;100.00
18985;BME280;9626;52.552;13.436;2023-04-01T22:01:28;100458.16;;;3.53;100.00
18985;BME280;9626;52.552;13.436;2023-04-01T22:14:32;100472.13;;;3.52;100.00
18985;BME280;9626;52.552;13.436;2023-04-01T22:17:05;100479.09;;;3.50;100.00
18985;BME280;9626;52.552;13.436;2023-04-01T22:19:49;100481.66;;;3.42;100.00
18985;BME280;9626;52.552;13.436;2023-04-01T22:22:26;100481.63;;;3.41;100.00
18985;BME280;9626;52.552;13.436;2023-04-01T22:25:12;100491.22;;;3.35;100.00
18985;BME280;9626;52.552;13.436;2023-04-01T22:30:33;100486.06;;;3.48;100.00
18985;BME280;9626;52.552;13.436;2023-04-01T22:36:00;100495.63;;;3.43;100.00
18985;BME280;9626;52.552;13.436;2023-04-01T22:41:19;100502.56;;;3.39;100.00
18985;BME280;9626;52.552;13.436;2023-04-01T22:43:50;100509.50;;;3.32;100.00
18985;BME280;9626;52.552;13.436;2023-04-01T22:46:50;100512.03;;;3.23;100.00
18985;BME280;9626;52.552;13.436;2023-04-01T22:49:25;100508.56;;;3.24;100.00
18985;BME280;9626;52.552;13.436;2023-04-01T22:52:05;100514.66;;;3.23;100.00
18985;BME280;9626;52.552;13.436;2023-04-01T22:54:42;100521.66;;;3.24;100.00
18985;BME280;9626;52.552;13.436;2023-04-01T22:59:54;100526.91;;;3.27;100.00
18985;BME280;9626;52.552;13.436;2023-04-01T23:02:30;100522.66;;;3.38;100.00